Time;durP1;ratioP1;P1;durP2;ratioP2;P2;SDS_P1;SDS_P2;PMS_P1;PMS_P2;Temp;Humidity;BMP_temperature;BMP_pressure;BME280_temperature;BME280_humidity;BME280_pressure;Samples;Min_cycle;Max_cycle;Signal;HPM_P1;HPM_P2
2023/06/15 00:00:51;;;;;;;7.85;3.50;;;;;;;;;;2093184;28;20040;-62
2023/06/15 00:02:11;;;;;;;5.82;3.53;;;;;;;;;;2092668;28;20381;-62
2023/06/15 00:03:30;;;;;;;7.68;3.63;;;;;;;;;;2094743;28;20036;-62
2023/06/15 00:04:50;;;;;;;8.23;3.95;;;;;;;;;;2092653;28;20032;-62
2023/06/15 00:06:09;;;;;;;7.90;3.38;;;;;;;;;;2094553;28;20036;-62
2023/06/15 00:07:28;;;;;;;6.97;3.63;;;;;;;;;;2093236;28;20356;-62
2023/06/15 00:08:47;;;;;;;11.90;3.90;;;;;;;;;;2094662;28;20041;-62
2023/06/15 00:10:06;;;;;;;10.95;4.00;;;;;;;;;;2092360;28;20028;-63
2023/06/15 00:11:25;;;;;;;9.35;3.53;;;;;;;;;;2094139;28;20021;-62
2023/06/15 00:12:44;;;;;;;6.80;3.30;;;;;;;;;;2094986;28;20012;-62
2023/06/15 00:14:04;;;;;;;11.60;3.83;;;;;;;;;;2095438;28;20033;-64
2023/06/15 00:15:23;;;;;;;8.55;3.50;;;;;;;;;;2093571;28;20029;-62
2023/06/15 00:16:42;;;;;;;11.90;3.47;;;;;;;;;;2096046;28;20052;-62
2023/06/15 00:18:01;;;;;;;7.10;3.90;;;;;;;;;;2083632;28;20069;-64
2023/06/15 00:19:21;;;;;;;8.05;3.85;;;;;;;;;;2089199;28;20024;-62
2023/06/15 00:20:39;;;;;;;7.18;3.35;;;;;;;;;;2084343;28;20555;-62
2023/06/15 00:21:58;;;;;;;5.45;3.40;;;;;;;;;;2090154;28;20032;-64
2023/06/15 00:23:17;;;;;;;8.85;3.92;;;;;;;;;;2094419;28;20020;-62
2023/06/15 00:24:36;;;;;;;16.55;4.20;;;;;;;;;;2093699;28;20465;-62
2023/06/15 00:25:55;;;;;;;4.45;3.72;;;;;;;;;;2094016;28;20025;-61
2023/06/15 00:27:14;;;;;;;8.85;3.83;;;;;;;;;;2092288;28;20085;-62
2023/06/15 00:28:33;;;;;;;12.20;4.22;;;;;;;;;;2093926;28;20037;-61
2023/06/15 00:29:52;;;;;;;12.18;4.15;;;;;;;;;;2092534;28;20489;-62
2023/06/15 00:31:11;;;;;;;13.65;4.50;;;;;;;;;;2094062;28;20028;-63
2023/06/15 00:32:30;;;;;;;11.55;3.85;;;;;;;;;;2093500;28;20034;-62
2023/06/15 00:33:49;;;;;;;6.82;3.67;;;;;;;;;;2085525;28;20017;-62
2023/06/15 00:35:08;;;;;;;11.75;4.10;;;;;;;;;;2090863;28;20120;-63
2023/06/15 00:36:27;;;;;;;10.75;4.05;;;;;;;;;;2094569;28;20108;-62
2023/06/15 00:37:46;;;;;;;11.90;3.92;;;;;;;;;;2094157;28;20103;-62
2023/06/15 00:39:05;;;;;;;9.45;3.70;;;;;;;;;;2095368;28;20036;-62
2023/06/15 00:40:24;;;;;;;8.07;4.03;;;;;;;;;;2085392;28;20227;-62
2023/06/15 00:41:43;;;;;;;7.80;3.75;;;;;;;;;;2092295;28;20058;-62
2023/06/15 00:43:02;;;;;;;13.50;5.28;;;;;;;;;;2095428;28;20028;-62
2023/06/15 00:44:21;;;;;;;6.65;3.90;;;;;;;;;;2082633;28;20026;-62
2023/06/15 00:45:40;;;;;;;7.95;3.70;;;;;;;;;;2088620;28;20033;-62
2023/06/15 00:46:59;;;;;;;7.45;3.17;;;;;;;;;;2095420;28;20436;-62
2023/06/15 00:48:18;;;;;;;9.48;3.88;;;;;;;;;;2093043;28;20025;-62
2023/06/15 00:49:37;;;;;;;9.88;3.67;;;;;;;;;;2094477;28;20135;-62
2023/06/15 00:50:56;;;;;;;9.70;4.25;;;;;;;;;;2095572;28;20025;-62
2023/06/15 00:52:16;;;;;;;12.23;3.97;;;;;;;;;;2095733;28;20036;-62
2023/06/15 00:53:35;;;;;;;12.30;3.90;;;;;;;;;;2092073;28;20028;-64
2023/06/15 00:54:55;;;;;;;12.18;3.92;;;;;;;;;;2094155;28;20482;-62
2023/06/15 00:56:16;;;;;;;11.77;3.92;;;;;;;;;;2095435;28;20052;-62
2023/06/15 00:57:35;;;;;;;8.95;4.05;;;;;;;;;;2093771;28;20723;-62
2023/06/15 00:58:55;;;;;;;10.38;4.05;;;;;;;;;;2097184;28;20028;-62
2023/06/15 01:00:18;;;;;;;8.07;3.97;;;;;;;;;;2094329;28;20032;-63
2023/06/15 01:01:37;;;;;;;7.53;3.67;;;;;;;;;;2095233;28;20607;-62
2023/06/15 01:02:59;;;;;;;10.27;3.78;;;;;;;;;;2096608;28;20025;-65
2023/06/15 01:04:18;;;;;;;7.85;3.20;;;;;;;;;;2094745;28;20032;-62
2023/06/15 01:05:37;;;;;;;7.38;3.50;;;;;;;;;;2094505;28;20382;-62
2023/06/15 01:07:01;;;;;;;6.45;3.47;;;;;;;;;;2094767;28;20444;-62
2023/06/15 01:08:25;;;;;;;6.05;3.20;;;;;;;;;;2093216;28;20020;-62
2023/06/15 01:09:44;;;;;;;5.40;3.88;;;;;;;;;;2093509;28;20036;-62
2023/06/15 01:11:03;;;;;;;6.90;3.42;;;;;;;;;;2093506;28;20060;-62
2023/06/15 01:12:23;;;;;;;3.65;3.35;;;;;;;;;;2093431;28;20490;-62
2023/06/15 01:13:43;;;;;;;4.55;3.05;;;;;;;;;;2095313;28;20025;-63
2023/06/15 01:15:02;;;;;;;7.15;3.42;;;;;;;;;;2094930;28;20036;-62
2023/06/15 01:16:27;;;;;;;7.40;3.80;;;;;;;;;;2092886;28;20021;-63
2023/06/15 01:17:46;;;;;;;4.00;3.38;;;;;;;;;;2094362;28;20024;-62
2023/06/15 01:19:09;;;;;;;5.57;3.17;;;;;;;;;;2094223;28;20045;-61
2023/06/15 01:20:38;;;;;;;7.28;3.42;;;;;;;;;;2096037;28;20032;-61
2023/06/15 01:21:59;;;;;;;7.07;3.25;;;;;;;;;;2095477;28;20092;-62
2023/06/15 01:23:30;;;;;;;6.57;3.25;;;;;;;;;;2091537;28;20040;-62
2023/06/15 01:24:57;;;;;;;4.65;3.33;;;;;;;;;;2093663;28;20037;-63
2023/06/15 01:26:17;;;;;;;4.18;3.20;;;;;;;;;;2094945;28;20024;-62
2023/06/15 01:27:39;;;;;;;6.75;3.10;;;;;;;;;;2094426;28;20360;-62
2023/06/15 01:28:59;;;;;;;5.68;3.65;;;;;;;;;;2096219;28;20029;-62
2023/06/15 01:30:18;;;;;;;3.30;2.95;;;;;;;;;;2093743;28;20108;-63
2023/06/15 01:31:39;;;;;;;4.15;3.53;;;;;;;;;;2091470;28;20425;-62
2023/06/15 01:32:58;;;;;;;3.75;3.10;;;;;;;;;;2093763;28;20021;-62
2023/06/15 01:34:17;;;;;;;10.98;3.42;;;;;;;;;;2083973;28;20124;-63
2023/06/15 01:35:36;;;;;;;4.20;3.60;;;;;;;;;;2090363;28;20497;-63
2023/06/15 01:36:55;;;;;;;17.77;4.03;;;;;;;;;;2092761;28;20466;-63
2023/06/15 01:38:15;;;;;;;10.50;4.15;;;;;;;;;;2096651;28;20036;-64
2023/06/15 01:39:34;;;;;;;14.10;4.03;;;;;;;;;;2095218;28;20021;-65
2023/06/15 01:40:53;;;;;;;17.60;3.80;;;;;;;;;;2095297;28;20478;-62
2023/06/15 01:42:12;;;;;;;15.50;4.45;;;;;;;;;;2095974;28;20436;-61
2023/06/15 01:43:32;;;;;;;18.58;4.40;;;;;;;;;;2093437;28;20037;-62
2023/06/15 01:44:53;;;;;;;10.27;4.22;;;;;;;;;;2094151;28;20029;-62
2023/06/15 01:46:12;;;;;;;12.95;4.15;;;;;;;;;;2096284;28;20033;-62
2023/06/15 01:47:31;;;;;;;12.07;3.85;;;;;;;;;;2084849;28;20502;-61
2023/06/15 01:48:51;;;;;;;14.23;3.90;;;;;;;;;;2088912;28;20640;-62
2023/06/15 01:50:10;;;;;;;13.32;4.03;;;;;;;;;;2094541;28;20111;-61
2023/06/15 01:51:30;;;;;;;9.73;3.50;;;;;;;;;;2094705;28;20029;-61
2023/06/15 01:52:49;;;;;;;8.90;3.80;;;;;;;;;;2093306;28;20028;-62
2023/06/15 01:54:08;;;;;;;13.68;3.80;;;;;;;;;;2093344;28;20033;-61
2023/06/15 01:55:27;;;;;;;10.65;4.03;;;;;;;;;;2094409;28;20032;-62
2023/06/15 01:56:46;;;;;;;10.52;3.42;;;;;;;;;;2094251;28;20473;-61
2023/06/15 01:58:05;;;;;;;14.35;3.88;;;;;;;;;;2095171;28;20040;-62
2023/06/15 01:59:24;;;;;;;10.73;4.40;;;;;;;;;;2092368;28;20505;-61
2023/06/15 02:00:43;;;;;;;12.18;3.97;;;;;;;;;;2091734;28;20029;-61
2023/06/15 02:02:03;;;;;;;11.05;3.92;;;;;;;;;;2091187;28;20033;-62
2023/06/15 02:03:21;;;;;;;15.82;4.35;;;;;;;;;;2094008;28;20060;-62
2023/06/15 02:04:40;;;;;;;16.38;4.10;;;;;;;;;;2094911;28;20452;-61
2023/06/15 02:05:59;;;;;;;15.82;4.15;;;;;;;;;;2093667;28;20107;-61
2023/06/15 02:07:18;;;;;;;13.73;4.35;;;;;;;;;;2084867;28;20033;-62
2023/06/15 02:08:37;;;;;;;13.13;4.47;;;;;;;;;;2091736;28;20032;-61
2023/06/15 02:09:56;;;;;;;16.65;3.88;;;;;;;;;;2094722;28;20044;-63
2023/06/15 02:11:18;;;;;;;15.65;3.88;;;;;;;;;;2093276;28;20029;-62
2023/06/15 02:12:37;;;;;;;15.02;4.20;;;;;;;;;;2093753;28;20028;-62
2023/06/15 02:13:59;;;;;;;9.45;3.70;;;;;;;;;;2081756;28;20069;-63
2023/06/15 02:15:18;;;;;;;10.30;3.85;;;;;;;;;;2089676;28;20684;-64
2023/06/15 02:16:38;;;;;;;14.20;4.32;;;;;;;;;;2095086;28;20092;-61
2023/06/15 02:18:00;;;;;;;11.70;3.67;;;;;;;;;;2093319;28;20104;-65
2023/06/15 02:19:23;;;;;;;7.75;3.75;;;;;;;;;;2092361;28;20104;-62
2023/06/15 02:20:42;;;;;;;;;;;;;;;;;;2092302;28;20131;-62
2023/06/15 02:22:02;;;;;;;13.38;4.47;;;;;;;;;;2093588;28;19912;-61
2023/06/15 02:23:21;;;;;;;17.85;4.70;;;;;;;;;;2094187;28;20032;-65
2023/06/15 02:24:40;;;;;;;10.13;3.88;;;;;;;;;;2091176;28;20016;-62
2023/06/15 02:25:59;;;;;;;10.05;3.95;;;;;;;;;;2093258;28;20036;-62
2023/06/15 02:27:18;;;;;;;10.05;4.40;;;;;;;;;;2096398;28;20103;-61
2023/06/15 02:28:37;;;;;;;6.22;3.97;;;;;;;;;;2096167;28;20393;-62
2023/06/15 02:29:56;;;;;;;15.27;4.50;;;;;;;;;;2095910;28;20028;-62
2023/06/15 02:31:15;;;;;;;10.25;4.00;;;;;;;;;;2094036;28;20052;-62
2023/06/15 02:32:36;;;;;;;16.65;3.65;;;;;;;;;;2095774;28;20068;-61
2023/06/15 02:33:55;;;;;;;10.00;3.92;;;;;;;;;;2095541;28;20048;-61
2023/06/15 02:35:14;;;;;;;11.07;4.53;;;;;;;;;;2086622;28;20025;-61
2023/06/15 02:36:34;;;;;;;6.00;3.70;;;;;;;;;;2090274;28;20028;-62
2023/06/15 02:37:54;;;;;;;10.77;3.72;;;;;;;;;;2094281;28;20029;-61
2023/06/15 02:39:13;;;;;;;9.65;3.85;;;;;;;;;;2092999;28;20028;-60
2023/06/15 02:40:31;;;;;;;17.63;4.13;;;;;;;;;;2095272;28;20024;-60
2023/06/15 02:41:50;;;;;;;5.97;3.47;;;;;;;;;;2096801;28;20127;-60
2023/06/15 02:43:09;;;;;;;14.60;3.97;;;;;;;;;;2094694;28;20025;-62
2023/06/15 02:44:28;;;;;;;9.32;4.22;;;;;;;;;;2085582;28;20030;-62
2023/06/15 02:45:47;;;;;;;9.05;4.00;;;;;;;;;;2090483;28;20040;-63
2023/06/15 02:47:06;;;;;;;10.55;3.60;;;;;;;;;;2097400;28;20119;-61
2023/06/15 02:48:26;;;;;;;3.97;2.95;;;;;;;;;;2094933;28;20033;-61
2023/06/15 02:49:46;;;;;;;7.25;3.63;;;;;;;;;;2092039;28;20056;-60
2023/06/15 02:51:05;;;;;;;6.03;3.60;;;;;;;;;;2094453;28;20033;-62
2023/06/15 02:52:24;;;;;;;8.18;3.83;;;;;;;;;;2094355;28;20037;-61
2023/06/15 02:53:43;;;;;;;5.90;3.30;;;;;;;;;;2096016;28;20025;-62
2023/06/15 02:55:02;;;;;;;5.30;3.42;;;;;;;;;;2094427;28;20470;-62
2023/06/15 02:56:21;;;;;;;5.90;3.65;;;;;;;;;;2094163;28;20028;-61
2023/06/15 02:57:43;;;;;;;6.03;4.03;;;;;;;;;;2096220;28;20492;-63
2023/06/15 02:59:02;;;;;;;6.85;3.45;;;;;;;;;;2093949;28;20029;-61
2023/06/15 03:00:23;;;;;;;4.35;3.63;;;;;;;;;;2093746;28;20028;-61
2023/06/15 03:01:42;;;;;;;5.05;3.50;;;;;;;;;;2093129;28;20045;-61
2023/06/15 03:03:01;;;;;;;25.05;4.88;;;;;;;;;;2096227;28;20028;-61
2023/06/15 03:04:24;;;;;;;20.60;5.47;;;;;;;;;;2095550;28;20016;-61
2023/06/15 03:05:43;;;;;;;8.57;4.45;;;;;;;;;;2094060;28;20108;-62
2023/06/15 03:07:03;;;;;;;15.02;4.30;;;;;;;;;;2093821;28;20115;-62
2023/06/15 03:08:32;;;;;;;17.05;4.63;;;;;;;;;;2096110;28;20024;-61
2023/06/15 03:09:51;;;;;;;21.98;4.82;;;;;;;;;;2094089;28;20036;-61
2023/06/15 03:11:10;;;;;;;17.10;4.50;;;;;;;;;;2096750;28;20032;-61
2023/06/15 03:12:29;;;;;;;19.83;4.63;;;;;;;;;;2096416;28;20024;-61
2023/06/15 03:13:48;;;;;;;14.13;4.32;;;;;;;;;;2095003;28;20025;-61
2023/06/15 03:15:08;;;;;;;18.95;4.47;;;;;;;;;;2093321;28;20044;-61
2023/06/15 03:16:27;;;;;;;14.57;4.70;;;;;;;;;;2083980;28;20079;-62
2023/06/15 03:17:46;;;;;;;12.50;4.65;;;;;;;;;;2089489;28;20500;-62
2023/06/15 03:19:08;;;;;;;22.15;4.93;;;;;;;;;;2095117;28;20037;-61
2023/06/15 03:20:32;;;;;;;9.65;3.67;;;;;;;;;;2095934;28;20020;-61
2023/06/15 03:21:51;;;;;;;13.23;4.15;;;;;;;;;;2093466;28;20509;-61
2023/06/15 03:23:13;;;;;;;7.82;4.25;;;;;;;;;;2094468;28;20060;-62
2023/06/15 03:24:32;;;;;;;15.18;3.97;;;;;;;;;;2094194;28;20029;-62
2023/06/15 03:25:52;;;;;;;9.93;3.92;;;;;;;;;;2094450;28;20029;-61
2023/06/15 03:27:11;;;;;;;8.20;4.07;;;;;;;;;;2084319;28;20032;-61
2023/06/15 03:28:30;;;;;;;12.80;4.35;;;;;;;;;;2089660;28;20029;-62
2023/06/15 03:29:49;;;;;;;15.15;4.25;;;;;;;;;;2095852;28;20498;-63
2023/06/15 03:31:08;;;;;;;14.63;3.72;;;;;;;;;;2094847;28;20054;-61
2023/06/15 03:32:28;;;;;;;14.10;3.90;;;;;;;;;;2095054;28;20021;-61
2023/06/15 03:33:47;;;;;;;8.30;3.78;;;;;;;;;;2095998;28;20024;-63
2023/06/15 03:35:06;;;;;;;6.80;3.38;;;;;;;;;;2093311;28;20462;-61
2023/06/15 03:36:29;;;;;;;11.73;3.65;;;;;;;;;;2096911;28;20024;-62
2023/06/15 03:37:48;;;;;;;7.35;3.63;;;;;;;;;;2096126;28;20025;-62
2023/06/15 03:39:07;;;;;;;10.20;3.78;;;;;;;;;;2095479;28;20143;-63
2023/06/15 03:40:28;;;;;;;15.40;4.68;;;;;;;;;;2093854;28;20099;-61
2023/06/15 03:41:47;;;;;;;7.10;3.42;;;;;;;;;;2095921;28;20029;-61
2023/06/15 03:43:06;;;;;;;11.38;3.92;;;;;;;;;;2094736;28;20389;-63
2023/06/15 03:44:25;;;;;;;7.53;4.50;;;;;;;;;;2093001;28;20036;-61
2023/06/15 03:45:44;;;;;;;10.38;3.67;;;;;;;;;;2094889;28;20028;-61
2023/06/15 03:47:03;;;;;;;9.80;4.20;;;;;;;;;;2096437;28;20040;-61
2023/06/15 03:48:22;;;;;;;3.83;3.22;;;;;;;;;;2094004;28;20159;-62
2023/06/15 03:49:41;;;;;;;6.47;3.67;;;;;;;;;;2093807;28;20187;-62
2023/06/15 03:51:00;;;;;;;10.75;3.35;;;;;;;;;;2094011;28;20481;-63
2023/06/15 03:52:19;;;;;;;8.13;4.13;;;;;;;;;;2093966;28;20028;-63
2023/06/15 03:53:41;;;;;;;8.48;3.72;;;;;;;;;;2094887;28;20107;-62
2023/06/15 03:55:00;;;;;;;9.00;3.53;;;;;;;;;;2095338;28;20036;-63
2023/06/15 03:56:19;;;;;;;7.55;3.92;;;;;;;;;;2097109;28;20488;-62
2023/06/15 03:57:38;;;;;;;12.48;4.15;;;;;;;;;;2095696;28;20059;-62
2023/06/15 03:58:57;;;;;;;9.95;3.70;;;;;;;;;;2095545;28;20497;-62
2023/06/15 04:00:16;;;;;;;6.75;3.75;;;;;;;;;;2093722;28;20510;-62
2023/06/15 04:01:35;;;;;;;8.05;3.67;;;;;;;;;;2095112;28;20132;-62
2023/06/15 04:02:56;;;;;;;15.48;4.00;;;;;;;;;;2095299;28;20416;-62
2023/06/15 04:04:15;;;;;;;10.75;3.65;;;;;;;;;;2092776;28;20028;-62
2023/06/15 04:05:34;;;;;;;16.42;4.10;;;;;;;;;;2095383;28;20017;-65
2023/06/15 04:06:56;;;;;;;11.23;4.00;;;;;;;;;;2093415;28;20699;-62
2023/06/15 04:08:15;;;;;;;15.65;3.97;;;;;;;;;;2090864;28;20036;-63
2023/06/15 04:09:34;;;;;;;11.05;3.83;;;;;;;;;;2090451;28;20111;-62
2023/06/15 04:10:55;;;;;;;11.57;4.03;;;;;;;;;;2091152;28;20551;-63
2023/06/15 04:12:14;;;;;;;7.75;4.00;;;;;;;;;;2093785;28;20498;-62
2023/06/15 04:13:32;;;;;;;12.98;4.22;;;;;;;;;;2094117;28;20028;-62
2023/06/15 04:14:51;;;;;;;14.23;3.90;;;;;;;;;;2096069;28;20509;-63
2023/06/15 04:16:10;;;;;;;16.35;4.40;;;;;;;;;;2093510;28;20025;-62
2023/06/15 04:17:29;;;;;;;13.07;3.75;;;;;;;;;;2095127;28;20409;-62
2023/06/15 04:18:49;;;;;;;9.02;3.72;;;;;;;;;;2095015;28;20067;-61
2023/06/15 04:20:09;;;;;;;10.90;4.40;;;;;;;;;;2093924;28;20052;-62
2023/06/15 04:21:28;;;;;;;11.15;3.35;;;;;;;;;;2094919;28;20033;-61
2023/06/15 04:22:47;;;;;;;10.23;3.90;;;;;;;;;;2095326;28;20465;-61
2023/06/15 04:24:06;;;;;;;10.88;3.80;;;;;;;;;;2092621;28;20469;-63
2023/06/15 04:25:28;;;;;;;11.25;4.47;;;;;;;;;;2087979;28;20625;-61
2023/06/15 04:26:47;;;;;;;13.13;4.18;;;;;;;;;;2093879;28;20041;-60
2023/06/15 04:28:12;;;;;;;15.30;3.92;;;;;;;;;;2095007;28;20111;-61
2023/06/15 04:29:31;;;;;;;12.05;3.80;;;;;;;;;;2095749;28;20024;-61
2023/06/15 04:30:52;;;;;;;12.48;3.70;;;;;;;;;;2092124;28;20478;-63
2023/06/15 04:32:12;;;;;;;12.93;3.53;;;;;;;;;;2092628;28;20028;-61
2023/06/15 04:33:32;;;;;;;7.78;3.70;;;;;;;;;;2095059;28;20107;-62
2023/06/15 04:34:54;;;;;;;13.68;3.60;;;;;;;;;;2092696;28;20429;-61
2023/06/15 04:36:13;;;;;;;12.23;3.40;;;;;;;;;;2094265;28;20036;-70
2023/06/15 04:37:32;;;;;;;14.15;3.60;;;;;;;;;;2092962;28;20025;-61
2023/06/15 04:38:51;;;;;;;6.53;3.60;;;;;;;;;;2094803;28;20111;-61
2023/06/15 04:40:11;;;;;;;9.88;3.38;;;;;;;;;;2085038;28;20699;-62
2023/06/15 04:41:31;;;;;;;8.98;3.17;;;;;;;;;;2090453;28;20036;-61
2023/06/15 04:42:50;;;;;;;9.45;3.58;;;;;;;;;;2095831;28;20032;-61
2023/06/15 04:44:09;;;;;;;7.95;3.25;;;;;;;;;;2094013;28;20032;-62
2023/06/15 04:45:28;;;;;;;11.15;3.15;;;;;;;;;;2085931;28;20513;-61
2023/06/15 04:46:48;;;;;;;5.93;2.97;;;;;;;;;;2088143;28;20453;-61
2023/06/15 04:48:07;;;;;;;7.13;3.00;;;;;;;;;;2093829;28;20397;-61
2023/06/15 04:49:26;;;;;;;8.18;3.03;;;;;;;;;;2085085;28;20386;-60
2023/06/15 04:50:48;;;;;;;8.52;3.60;;;;;;;;;;2088886;28;20480;-62
2023/06/15 04:52:07;;;;;;;5.70;3.40;;;;;;;;;;2095010;28;20382;-62
2023/06/15 04:53:26;;;;;;;8.05;3.00;;;;;;;;;;2089209;28;20116;-64
2023/06/15 04:54:45;;;;;;;9.82;3.50;;;;;;;;;;2092937;28;20029;-65
2023/06/15 04:56:04;;;;;;;3.58;2.92;;;;;;;;;;2092608;28;20028;-65
2023/06/15 04:57:23;;;;;;;5.60;2.75;;;;;;;;;;2084175;28;20033;-65
2023/06/15 04:58:42;;;;;;;7.72;2.70;;;;;;;;;;2089898;28;20442;-64
2023/06/15 05:00:01;;;;;;;4.50;2.85;;;;;;;;;;2090458;28;20040;-64
2023/06/15 05:01:21;;;;;;;7.20;2.78;;;;;;;;;;2089259;28;20528;-64
2023/06/15 05:02:40;;;;;;;9.77;3.03;;;;;;;;;;2094258;28;20028;-65
2023/06/15 05:03:59;;;;;;;7.05;2.78;;;;;;;;;;2096040;28;20024;-64
2023/06/15 05:05:18;;;;;;;13.48;3.53;;;;;;;;;;2094701;28;20488;-65
2023/06/15 05:06:37;;;;;;;7.93;3.00;;;;;;;;;;2092516;28;20641;-64
2023/06/15 05:07:56;;;;;;;2.55;2.25;;;;;;;;;;2093070;28;20037;-64
2023/06/15 05:09:15;;;;;;;7.43;2.60;;;;;;;;;;2093027;28;20028;-65
2023/06/15 05:10:34;;;;;;;7.57;2.40;;;;;;;;;;2091922;28;20017;-62
2023/06/15 05:11:52;;;;;;;7.28;2.75;;;;;;;;;;2095495;28;20017;-63
2023/06/15 05:13:11;;;;;;;7.00;2.33;;;;;;;;;;2092110;28;20441;-62
2023/06/15 05:14:30;;;;;;;5.63;2.28;;;;;;;;;;2087409;28;20399;-63
2023/06/15 05:15:50;;;;;;;4.22;2.40;;;;;;;;;;2089929;28;20029;-62
2023/06/15 05:17:09;;;;;;;12.05;2.85;;;;;;;;;;2092746;28;20416;-63
2023/06/15 05:18:28;;;;;;;6.05;2.50;;;;;;;;;;2093008;28;20032;-63
2023/06/15 05:19:48;;;;;;;10.20;2.42;;;;;;;;;;2090161;28;20028;-62
2023/06/15 05:21:07;;;;;;;7.35;3.00;;;;;;;;;;2094055;28;20151;-61
2023/06/15 05:22:26;;;;;;;4.82;2.42;;;;;;;;;;2093632;28;20028;-64
2023/06/15 05:23:45;;;;;;;5.85;2.80;;;;;;;;;;2093698;28;20032;-61
2023/06/15 05:25:04;;;;;;;5.05;2.08;;;;;;;;;;2093418;28;20020;-62
2023/06/15 05:26:23;;;;;;;6.07;2.72;;;;;;;;;;2082294;28;20037;-62
2023/06/15 05:27:42;;;;;;;6.40;2.28;;;;;;;;;;2088684;28;20032;-60
2023/06/15 05:29:00;;;;;;;5.60;2.58;;;;;;;;;;2094252;28;20040;-66
2023/06/15 05:30:20;;;;;;;5.43;2.35;;;;;;;;;;2091487;28;20017;-60
2023/06/15 05:31:38;;;;;;;4.80;2.63;;;;;;;;;;2093789;28;20017;-61
2023/06/15 05:32:57;;;;;;;2.55;2.25;;;;;;;;;;2089069;28;20494;-63
2023/06/15 05:34:16;;;;;;;3.97;2.33;;;;;;;;;;2088795;28;20029;-65
2023/06/15 05:35:35;;;;;;;4.97;2.20;;;;;;;;;;2092912;28;20502;-65
2023/06/15 05:36:54;;;;;;;6.78;2.33;;;;;;;;;;2093337;28;20655;-67
2023/06/15 05:38:13;;;;;;;3.13;2.50;;;;;;;;;;2092570;28;20069;-66
2023/06/15 05:39:32;;;;;;;3.97;2.30;;;;;;;;;;2093949;28;20433;-65
2023/06/15 05:40:51;;;;;;;5.15;2.60;;;;;;;;;;2081616;28;20489;-65
2023/06/15 05:42:10;;;;;;;4.47;2.10;;;;;;;;;;2080395;28;20495;-65
2023/06/15 05:43:29;;;;;;;6.28;2.97;;;;;;;;;;2090453;28;20508;-67
2023/06/15 05:44:48;;;;;;;7.28;2.50;;;;;;;;;;2090399;28;20394;-66
2023/06/15 05:46:07;;;;;;;3.80;2.03;;;;;;;;;;2096173;28;20041;-66
2023/06/15 05:47:26;;;;;;;10.30;3.33;;;;;;;;;;2093586;28;20115;-66
2023/06/15 05:48:45;;;;;;;4.13;2.47;;;;;;;;;;2094335;28;20065;-65
2023/06/15 05:50:05;;;;;;;10.18;2.60;;;;;;;;;;2084273;28;20045;-65
2023/06/15 05:51:23;;;;;;;6.60;2.40;;;;;;;;;;2087958;28;20024;-66
2023/06/15 05:52:42;;;;;;;25.65;3.75;;;;;;;;;;2088136;28;20111;-66
2023/06/15 05:54:02;;;;;;;18.50;2.85;;;;;;;;;;2095317;28;20029;-66
2023/06/15 05:55:21;;;;;;;15.23;3.40;;;;;;;;;;2092465;28;20481;-67
2023/06/15 05:56:40;;;;;;;22.35;3.38;;;;;;;;;;2090307;28;20060;-66
2023/06/15 05:58:01;;;;;;;35.83;5.50;;;;;;;;;;2094295;28;20386;-66
2023/06/15 05:59:20;;;;;;;27.67;4.07;;;;;;;;;;2095401;28;20432;-65
2023/06/15 06:00:40;;;;;;;17.55;3.67;;;;;;;;;;2094087;28;20474;-65
2023/06/15 06:01:59;;;;;;;11.85;3.30;;;;;;;;;;2094589;28;20041;-65
2023/06/15 06:03:18;;;;;;;8.65;2.40;;;;;;;;;;2094127;28;20096;-63
2023/06/15 06:04:37;;;;;;;5.15;2.70;;;;;;;;;;2095227;28;20385;-66
2023/06/15 06:05:56;;;;;;;5.25;2.47;;;;;;;;;;2094993;28;20028;-65
2023/06/15 06:07:16;;;;;;;7.72;1.98;;;;;;;;;;2093656;28;20045;-65
2023/06/15 06:08:35;;;;;;;4.90;2.47;;;;;;;;;;2083051;28;20056;-66
2023/06/15 06:09:54;;;;;;;6.22;2.17;;;;;;;;;;2090936;28;20024;-64
2023/06/15 06:11:12;;;;;;;8.57;2.85;;;;;;;;;;2087510;28;20506;-64
2023/06/15 06:12:32;;;;;;;9.73;3.03;;;;;;;;;;2092128;28;20490;-64
2023/06/15 06:13:51;;;;;;;6.38;2.60;;;;;;;;;;2086635;28;20061;-65
2023/06/15 06:15:10;;;;;;;11.88;2.53;;;;;;;;;;2091780;28;20024;-64
2023/06/15 06:16:29;;;;;;;10.27;2.55;;;;;;;;;;2096385;28;20032;-64
2023/06/15 06:17:48;;;;;;;7.00;2.22;;;;;;;;;;2095125;28;20017;-65
2023/06/15 06:19:07;;;;;;;6.55;2.17;;;;;;;;;;2093651;28;20028;-65
2023/06/15 06:20:26;;;;;;;8.05;2.28;;;;;;;;;;2092846;28;20037;-64
2023/06/15 06:21:45;;;;;;;6.70;2.17;;;;;;;;;;2095053;28;20390;-65
2023/06/15 06:23:04;;;;;;;8.00;2.10;;;;;;;;;;2096367;28;20029;-65
2023/06/15 06:24:23;;;;;;;4.72;1.83;;;;;;;;;;2095917;28;20044;-67
2023/06/15 06:25:42;;;;;;;2.97;2.25;;;;;;;;;;2095756;28;20029;-64
2023/06/15 06:27:01;;;;;;;4.32;2.40;;;;;;;;;;2095708;28;20029;-64
2023/06/15 06:28:20;;;;;;;5.90;2.13;;;;;;;;;;2096518;28;20029;-65
2023/06/15 06:29:40;;;;;;;4.20;1.70;;;;;;;;;;2097311;28;20044;-64
2023/06/15 06:30:59;;;;;;;5.75;2.65;;;;;;;;;;2086704;28;20025;-64
2023/06/15 06:32:19;;;;;;;4.57;2.20;;;;;;;;;;2085047;28;20025;-64
2023/06/15 06:33:38;;;;;;;4.30;2.13;;;;;;;;;;2090765;28;20029;-65
2023/06/15 06:35:00;;;;;;;7.32;2.10;;;;;;;;;;2094577;28;20028;-65
2023/06/15 06:36:19;;;;;;;6.20;2.30;;;;;;;;;;2086662;28;20025;-65
2023/06/15 06:37:38;;;;;;;9.13;2.85;;;;;;;;;;2092777;28;20025;-65
2023/06/15 06:38:58;;;;;;;5.60;2.13;;;;;;;;;;2093396;28;20024;-65
2023/06/15 06:40:17;;;;;;;4.88;2.20;;;;;;;;;;2084616;28;20033;-64
2023/06/15 06:41:36;;;;;;;2.60;2.38;;;;;;;;;;2079488;28;20029;-65
2023/06/15 06:42:55;;;;;;;6.28;2.03;;;;;;;;;;2091215;28;20032;-66
2023/06/15 06:44:16;;;;;;;3.92;1.98;;;;;;;;;;2086243;28;20510;-64
2023/06/15 06:45:35;;;;;;;2.25;1.92;;;;;;;;;;2091114;28;20848;-64
2023/06/15 06:46:56;;;;;;;5.50;2.47;;;;;;;;;;2096411;28;20111;-64
2023/06/15 06:48:15;;;;;;;2.88;1.95;;;;;;;;;;2087790;28;20029;-64
2023/06/15 06:49:34;;;;;;;8.02;2.40;;;;;;;;;;2093224;28;20385;-64
2023/06/15 06:50:53;;;;;;;2.42;2.22;;;;;;;;;;2094524;28;20025;-64
2023/06/15 06:52:12;;;;;;;7.05;2.30;;;;;;;;;;2095338;28;20040;-64
2023/06/15 06:53:31;;;;;;;7.10;2.47;;;;;;;;;;2094169;28;20025;-64
2023/06/15 06:54:51;;;;;;;7.53;2.30;;;;;;;;;;2094418;28;20021;-64
2023/06/15 06:56:10;;;;;;;8.43;2.20;;;;;;;;;;2092551;28;20025;-65
2023/06/15 06:57:29;;;;;;;5.97;2.15;;;;;;;;;;2095506;28;20025;-65
2023/06/15 06:58:48;;;;;;;3.08;2.47;;;;;;;;;;2093555;28;20493;-64
2023/06/15 07:00:10;;;;;;;13.02;2.80;;;;;;;;;;2083382;28;20120;-65
2023/06/15 07:01:28;;;;;;;5.68;2.60;;;;;;;;;;2091443;28;20048;-64
2023/06/15 07:02:47;;;;;;;2.65;2.05;;;;;;;;;;2094325;28;20143;-65
2023/06/15 07:04:06;;;;;;;6.43;2.65;;;;;;;;;;2084654;28;20033;-64
2023/06/15 07:05:25;;;;;;;8.32;2.53;;;;;;;;;;2091682;28;20024;-64
2023/06/15 07:06:43;;;;;;;4.57;2.60;;;;;;;;;;2095467;28;20025;-64
2023/06/15 07:08:03;;;;;;;4.55;2.13;;;;;;;;;;2095409;28;20037;-64
2023/06/15 07:09:21;;;;;;;4.95;2.95;;;;;;;;;;2086147;28;20034;-64
2023/06/15 07:10:40;;;;;;;4.35;2.15;;;;;;;;;;2091803;28;20393;-64
2023/06/15 07:12:00;;;;;;;5.95;2.00;;;;;;;;;;2095460;28;20041;-64
2023/06/15 07:13:19;;;;;;;6.13;2.25;;;;;;;;;;2096004;28;20386;-65
2023/06/15 07:14:38;;;;;;;3.08;2.35;;;;;;;;;;2095776;28;20025;-65
2023/06/15 07:15:57;;;;;;;5.43;2.42;;;;;;;;;;2094616;28;20021;-64
2023/06/15 07:17:16;;;;;;;5.45;2.40;;;;;;;;;;2094050;28;20025;-65
2023/06/15 07:18:35;;;;;;;5.32;2.22;;;;;;;;;;2095525;28;20493;-65
2023/06/15 07:19:54;;;;;;;3.90;2.08;;;;;;;;;;2084392;28;20036;-64
2023/06/15 07:21:13;;;;;;;6.25;2.33;;;;;;;;;;2089892;28;20036;-64
2023/06/15 07:22:33;;;;;;;6.70;2.25;;;;;;;;;;2093844;28;20024;-64
2023/06/15 07:23:53;;;;;;;2.88;2.55;;;;;;;;;;2096049;28;20481;-64
2023/06/15 07:25:11;;;;;;;3.47;2.20;;;;;;;;;;2095380;28;20021;-64
2023/06/15 07:26:30;;;;;;;6.15;2.78;;;;;;;;;;2096098;28;20025;-64
2023/06/15 07:27:49;;;;;;;5.43;2.42;;;;;;;;;;2096055;28;20033;-64
2023/06/15 07:29:08;;;;;;;2.67;2.13;;;;;;;;;;2094859;28;20107;-63
2023/06/15 07:30:29;;;;;;;3.35;2.30;;;;;;;;;;2093928;28;20473;-64
2023/06/15 07:31:47;;;;;;;4.10;2.10;;;;;;;;;;2095251;28;20501;-63
2023/06/15 07:33:06;;;;;;;3.45;2.40;;;;;;;;;;2094522;28;20033;-65
2023/06/15 07:34:26;;;;;;;3.05;2.60;;;;;;;;;;2095014;28;20028;-64
2023/06/15 07:35:45;;;;;;;6.57;2.88;;;;;;;;;;2094563;28;20449;-64
2023/06/15 07:37:04;;;;;;;5.78;2.70;;;;;;;;;;2094904;28;20056;-65
2023/06/15 07:38:23;;;;;;;4.35;2.63;;;;;;;;;;2093245;28;20040;-64
2023/06/15 07:39:42;;;;;;;3.40;2.50;;;;;;;;;;2096563;28;20033;-64
2023/06/15 07:41:01;;;;;;;5.22;2.70;;;;;;;;;;2085983;28;20033;-63
2023/06/15 07:42:20;;;;;;;7.13;3.28;;;;;;;;;;2091697;28;20040;-65
2023/06/15 07:43:39;;;;;;;5.18;3.13;;;;;;;;;;2095327;28;20029;-67
2023/06/15 07:44:58;;;;;;;4.45;3.03;;;;;;;;;;2084444;28;20025;-66
2023/06/15 07:46:17;;;;;;;4.43;2.63;;;;;;;;;;2091185;28;20025;-66
2023/06/15 07:47:36;;;;;;;6.43;3.22;;;;;;;;;;2085838;28;20032;-65
2023/06/15 07:48:55;;;;;;;5.82;2.90;;;;;;;;;;2091188;28;20028;-66
2023/06/15 07:50:14;;;;;;;3.47;2.83;;;;;;;;;;2092198;28;20478;-66
2023/06/15 07:51:33;;;;;;;8.65;2.63;;;;;;;;;;2093226;28;20029;-65
2023/06/15 07:52:53;;;;;;;6.20;3.03;;;;;;;;;;2095427;28;20036;-65
2023/06/15 07:54:11;;;;;;;6.03;2.58;;;;;;;;;;2095355;28;20032;-66